Time;durP1;ratioP1;P1;durP2;ratioP2;P2;SDS_P1;SDS_P2;PMS_P1;PMS_P2;Temp;Humidity;BMP_temperature;BMP_pressure;BME280_temperature;BME280_humidity;BME280_pressure;Samples;Min_cycle;Max_cycle;Signal;HPM_P1;HPM_P2
2022/09/25 00:01:36;;;;;;;11.07;7.50;;;12.10;99.90;;;;;;4206304;28;20201;-76
2022/09/25 00:03:38;;;;;;;11.63;7.93;;;12.10;99.90;;;;;;4214650;28;20294;-76
2022/09/25 00:05:42;;;;;;;13.03;8.10;;;12.10;99.90;;;;;;4215750;28;20201;-76
2022/09/25 00:07:43;;;;;;;10.23;7.57;;;12.00;99.90;;;;;;4204841;28;20240;-76
2022/09/25 00:09:45;;;;;;;13.43;7.73;;;12.00;99.90;;;;;;4220639;28;20299;-76
2022/09/25 00:11:47;;;;;;;13.03;8.77;;;12.00;99.90;;;;;;4213362;28;20246;-76
2022/09/25 00:13:49;;;;;;;14.23;8.67;;;11.90;99.90;;;;;;4203296;28;20212;-75
2022/09/25 00:15:55;;;;;;;12.17;7.93;;;11.90;99.90;;;;;;4203674;28;20214;-76
2022/09/25 00:17:57;;;;;;;13.47;8.23;;;11.90;99.90;;;;;;4220291;28;20285;-77
2022/09/25 00:19:57;;;;;;;13.33;9.00;;;11.80;99.90;;;;;;4223508;28;20313;-77
2022/09/25 00:21:59;;;;;;;15.47;8.80;;;11.80;99.90;;;;;;4221260;28;20883;-76
2022/09/25 00:24:03;;;;;;;14.47;8.83;;;11.80;99.90;;;;;;4222032;28;20230;-76
2022/09/25 00:26:07;;;;;;;16.40;8.67;;;11.70;99.90;;;;;;4199949;28;20224;-75
2022/09/25 00:28:09;;;;;;;13.67;8.90;;;11.70;99.90;;;;;;4205705;28;20707;-77
2022/09/25 00:30:13;;;;;;;13.60;8.20;;;11.70;99.90;;;;;;4222005;28;20207;-77
2022/09/25 00:32:16;;;;;;;13.37;8.50;;;11.70;99.90;;;;;;4219692;28;20218;-77
2022/09/25 00:34:18;;;;;;;12.47;8.03;;;11.60;99.90;;;;;;4221656;28;20219;-75
2022/09/25 00:36:21;;;;;;;13.70;8.10;;;11.60;99.90;;;;;;4215514;28;20263;-76
2022/09/25 00:38:22;;;;;;;11.27;7.63;;;11.60;99.90;;;;;;4216293;28;20206;-77
2022/09/25 00:40:24;;;;;;;12.17;8.10;;;11.50;99.90;;;;;;4217991;28;20214;-74
2022/09/25 00:42:26;;;;;;;13.80;8.87;;;11.50;99.90;;;;;;4220011;28;20215;-75
2022/09/25 00:44:56;;;;;;;12.67;8.53;;;11.50;99.90;;;;;;4218760;28;20251;-76
2022/09/25 00:46:58;;;;;;;13.20;8.70;;;11.40;99.90;;;;;;4204313;28;20320;-76
2022/09/25 00:49:04;;;;;;;13.77;8.47;;;11.50;99.90;;;;;;4201289;28;20931;-76
2022/09/25 00:51:06;;;;;;;12.33;8.13;;;11.40;99.90;;;;;;4221360;28;20214;-75
2022/09/25 00:53:13;;;;;;;12.03;8.37;;;11.40;99.90;;;;;;4199007;28;20219;-76
2022/09/25 00:55:16;;;;;;;12.33;7.60;;;11.30;99.90;;;;;;4221590;28;20654;-76
2022/09/25 00:57:20;;;;;;;12.00;7.67;;;11.30;99.90;;;;;;4217042;28;20724;-75
2022/09/25 00:59:27;;;;;;;11.37;7.43;;;11.30;99.90;;;;;;4202984;28;20204;-76
2022/09/25 01:01:29;;;;;;;9.97;7.17;;;11.20;99.90;;;;;;4203241;28;20557;-75
2022/09/25 01:03:32;;;;;;;9.67;6.67;;;11.10;99.90;;;;;;4216965;28;20216;-75
2022/09/25 01:05:40;;;;;;;9.53;7.23;;;11.10;99.90;;;;;;4223069;28;20258;-76
2022/09/25 01:07:46;;;;;;;9.87;6.97;;;11.10;99.90;;;;;;4222895;28;20729;-76
2022/09/25 01:09:48;;;;;;;9.93;6.90;;;11.00;99.90;;;;;;4217387;28;20205;-76
2022/09/25 01:11:50;;;;;;;9.37;6.47;;;11.00;99.90;;;;;;4218633;28;20211;-76
2022/09/25 01:13:55;;;;;;;9.13;6.80;;;11.00;99.90;;;;;;4218517;28;20656;-76
2022/09/25 01:16:04;;;;;;;9.30;6.47;;;11.00;99.90;;;;;;4219903;28;20719;-76
2022/09/25 01:18:18;;;;;;;9.33;5.83;;;11.00;99.90;;;;;;4220208;28;20213;-76
2022/09/25 01:20:32;;;;;;;10.70;6.60;;;10.90;99.90;;;;;;4200917;28;20220;-75
2022/09/25 01:22:50;;;;;;;8.73;6.37;;;10.90;99.90;;;;;;4210177;28;20205;-75
2022/09/25 01:25:10;;;;;;;13.17;7.53;;;10.90;99.90;;;;;;4220320;28;20626;-76
2022/09/25 01:27:36;;;;;;;9.57;6.60;;;10.90;99.90;;;;;;4217770;28;20762;-74
2022/09/25 01:29:44;;;;;;;10.27;6.60;;;10.90;99.90;;;;;;4200388;28;20669;-74
2022/09/25 01:31:53;;;;;;;11.07;7.33;;;10.80;99.90;;;;;;4220545;28;20247;-74
2022/09/25 01:34:01;;;;;;;11.23;7.13;;;10.80;99.90;;;;;;4204334;28;20236;-75
2022/09/25 01:36:10;;;;;;;9.43;6.77;;;10.80;99.90;;;;;;4203002;28;20324;-76
2022/09/25 01:38:24;;;;;;;9.27;6.50;;;10.80;99.90;;;;;;4202439;28;20217;-75
2022/09/25 01:40:32;;;;;;;9.70;6.50;;;10.70;99.90;;;;;;4222607;28;20211;-75
2022/09/25 01:42:40;;;;;;;10.00;7.00;;;10.70;99.90;;;;;;4198459;28;20270;-75
2022/09/25 01:44:46;;;;;;;10.60;6.77;;;10.70;99.90;;;;;;4203758;28;20247;-74
2022/09/25 01:46:51;;;;;;;10.30;6.90;;;10.60;99.90;;;;;;4218954;28;20264;-76
2022/09/25 01:48:59;;;;;;;10.87;6.80;;;10.60;99.90;;;;;;4199851;28;20867;-75
2022/09/25 01:51:04;;;;;;;10.80;7.43;;;10.60;99.90;;;;;;4217151;28;20306;-76
2022/09/25 01:53:12;;;;;;;11.60;7.77;;;10.60;99.90;;;;;;4215254;28;20248;-76
2022/09/25 01:55:20;;;;;;;13.33;8.70;;;10.60;99.90;;;;;;4212944;28;20835;-76
2022/09/25 01:57:26;;;;;;;12.53;8.10;;;10.60;99.90;;;;;;4200789;28;20257;-75
2022/09/25 01:59:35;;;;;;;11.53;8.10;;;10.50;99.90;;;;;;4218264;28;20204;-75
2022/09/25 02:01:42;;;;;;;11.70;8.07;;;10.50;99.90;;;;;;4223909;28;20584;-76
2022/09/25 02:03:48;;;;;;;13.10;8.87;;;10.50;99.90;;;;;;4208610;28;20342;-76
2022/09/25 02:05:55;;;;;;;12.80;8.80;;;10.40;99.90;;;;;;4206242;28;20262;-74
2022/09/25 02:08:02;;;;;;;13.73;8.30;;;10.40;99.90;;;;;;4224942;28;20197;-75
2022/09/25 02:10:10;;;;;;;12.50;8.37;;;10.30;99.90;;;;;;4228801;28;20262;-75
2022/09/25 02:12:17;;;;;;;13.63;8.60;;;10.30;99.90;;;;;;4228234;28;20612;-76
2022/09/25 02:14:23;;;;;;;10.67;8.00;;;10.30;99.90;;;;;;4229661;28;20717;-75
2022/09/25 02:16:30;;;;;;;14.03;8.80;;;10.20;99.90;;;;;;4198030;28;20754;-76
2022/09/25 02:21:02;;;;;;;12.80;8.20;;;10.20;99.90;;;;;;4221557;28;20881;-75
2022/09/25 02:23:14;;;;;;;13.03;8.20;;;10.20;99.90;;;;;;4218914;28;20220;-76
2022/09/25 02:25:24;;;;;;;12.67;8.30;;;10.20;99.90;;;;;;4216542;28;20287;-76
2022/09/25 02:27:28;;;;;;;14.00;8.60;;;10.20;99.90;;;;;;4219246;28;20852;-76
2022/09/25 02:29:30;;;;;;;11.47;7.30;;;10.20;99.90;;;;;;4214357;28;20273;-76
2022/09/25 02:31:37;;;;;;;11.37;7.77;;;10.20;99.90;;;;;;4200291;28;20606;-75
2022/09/25 02:33:41;;;;;;;11.30;7.40;;;10.20;99.90;;;;;;4214916;28;20213;-76
2022/09/25 02:35:43;;;;;;;12.07;7.90;;;10.20;99.90;;;;;;4218489;28;20283;-76
2022/09/25 02:37:45;;;;;;;10.37;7.20;;;10.20;99.90;;;;;;4212529;28;20210;-76
2022/09/25 02:39:49;;;;;;;10.90;7.23;;;10.10;99.90;;;;;;4215585;28;20227;-76
2022/09/25 02:42:07;;;;;;;9.57;6.63;;;10.10;99.90;;;;;;4218814;28;20287;-76
2022/09/25 02:44:18;;;;;;;11.27;7.60;;;10.20;99.90;;;;;;4211395;28;20214;-76
2022/09/25 02:46:29;;;;;;;16.43;9.47;;;10.10;99.90;;;;;;4201093;28;20716;-75
2022/09/25 02:48:41;;;;;;;12.07;8.17;;;10.20;99.90;;;;;;4218351;28;20208;-75
2022/09/25 02:50:52;;;;;;;12.20;8.47;;;10.20;99.90;;;;;;4217937;28;20212;-77
2022/09/25 02:53:03;;;;;;;12.47;8.97;;;10.10;99.90;;;;;;4217042;28;20200;-76
2022/09/25 02:55:12;;;;;;;12.60;8.50;;;10.10;99.90;;;;;;4218369;28;20213;-77
2022/09/25 02:57:33;;;;;;;11.43;8.40;;;10.10;99.90;;;;;;4215697;28;20299;-76
2022/09/25 02:59:40;;;;;;;13.33;9.17;;;10.10;99.90;;;;;;4218701;28;20204;-76
2022/09/25 03:01:43;;;;;;;12.83;9.30;;;10.10;99.90;;;;;;4201345;28;20675;-76
2022/09/25 03:03:47;;;;;;;13.50;9.40;;;10.10;99.90;;;;;;4219996;28;20202;-75
2022/09/25 03:05:52;;;;;;;11.60;8.17;;;10.10;99.90;;;;;;4200538;28;20301;-76
2022/09/25 03:10:15;;;;;;;12.20;8.03;;;10.10;99.90;;;;;;4220779;28;20262;-76
2022/09/25 03:12:17;;;;;;;12.43;8.37;;;10.10;99.90;;;;;;4217320;28;20299;-75
2022/09/25 03:14:18;;;;;;;12.23;8.00;;;10.10;99.90;;;;;;4216597;28;20292;-75
2022/09/25 03:16:29;;;;;;;10.83;7.70;;;10.10;99.90;;;;;;4194228;28;20230;-76
2022/09/25 03:18:32;;;;;;;11.30;7.83;;;10.10;99.90;;;;;;4196660;28;20225;-76
2022/09/25 03:20:33;;;;;;;11.73;7.80;;;10.00;99.90;;;;;;4217585;28;20242;-76
2022/09/25 03:22:37;;;;;;;12.57;8.10;;;10.00;99.90;;;;;;4217376;28;20216;-75
2022/09/25 03:24:39;;;;;;;12.00;8.47;;;10.00;99.90;;;;;;4197612;28;20236;-75
2022/09/25 03:26:41;;;;;;;12.67;8.33;;;10.00;99.90;;;;;;4217471;28;20264;-75
2022/09/25 03:28:42;;;;;;;12.33;8.70;;;10.00;99.90;;;;;;4220880;28;20244;-77
2022/09/25 03:30:44;;;;;;;10.97;7.90;;;10.00;99.90;;;;;;4217299;28;20291;-76
2022/09/25 03:32:47;;;;;;;11.70;8.03;;;10.00;99.90;;;;;;4209832;28;20282;-78
2022/09/25 03:34:49;;;;;;;12.73;8.73;;;10.00;99.90;;;;;;4203423;28;20217;-76
2022/09/25 03:36:51;;;;;;;10.90;7.87;;;9.90;99.90;;;;;;4222210;28;20297;-76
2022/09/25 03:38:57;;;;;;;16.00;8.87;;;9.90;99.90;;;;;;4202033;28;20794;-76
2022/09/25 03:40:59;;;;;;;11.43;8.37;;;9.90;99.90;;;;;;4215996;28;20261;-76
2022/09/25 03:43:01;;;;;;;12.53;8.60;;;9.90;99.90;;;;;;4220900;28;20288;-77
2022/09/25 03:45:03;;;;;;;11.03;8.13;;;9.90;99.90;;;;;;4199924;28;20227;-78
2022/09/25 03:47:05;;;;;;;12.23;8.80;;;9.90;99.90;;;;;;4219551;28;20804;-77
2022/09/25 03:49:09;;;;;;;14.20;9.40;;;9.90;99.90;;;;;;4222662;28;20241;-76
2022/09/25 03:51:11;;;;;;;12.20;8.60;;;10.00;99.90;;;;;;4218829;28;20205;-76
2022/09/25 03:53:13;;;;;;;13.63;9.77;;;10.00;99.90;;;;;;4218938;28;20211;-77
2022/09/25 03:55:16;;;;;;;12.60;8.90;;;10.00;99.90;;;;;;4202720;28;20694;-77
2022/09/25 03:57:18;;;;;;;12.50;9.13;;;10.00;99.90;;;;;;4220260;28;20231;-76
2022/09/25 03:59:19;;;;;;;12.60;9.67;;;10.00;99.90;;;;;;4220827;28;20201;-77
2022/09/25 04:01:22;;;;;;;11.20;8.40;;;9.90;99.90;;;;;;4203720;28;20251;-75
2022/09/25 04:03:26;;;;;;;11.77;8.03;;;9.90;99.90;;;;;;4218694;28;20236;-76
2022/09/25 04:05:28;;;;;;;12.87;7.50;;;9.90;99.90;;;;;;4217718;28;20205;-76
2022/09/25 04:07:30;;;;;;;10.43;7.60;;;9.90;99.90;;;;;;4220456;28;20229;-76
2022/09/25 04:09:32;;;;;;;11.10;7.67;;;10.00;99.90;;;;;;4199746;28;20230;-76
2022/09/25 04:11:36;;;;;;;10.17;7.40;;;9.90;99.90;;;;;;4222432;28;20305;-76
2022/09/25 04:13:40;;;;;;;10.63;7.20;;;10.00;99.90;;;;;;4206045;28;20237;-77
2022/09/25 04:15:42;;;;;;;9.37;7.03;;;10.00;99.90;;;;;;4210054;28;20274;-76
2022/09/25 04:17:44;;;;;;;9.63;6.90;;;10.00;99.90;;;;;;4213839;28;20209;-76
2022/09/25 04:19:46;;;;;;;10.47;7.43;;;10.00;99.90;;;;;;4216385;28;20477;-76
2022/09/25 04:21:48;;;;;;;10.40;7.33;;;10.00;99.90;;;;;;4220111;28;20255;-76
2022/09/25 04:26:07;;;;;;;9.63;7.07;;;10.00;99.90;;;;;;4216796;28;20234;-76
2022/09/25 04:28:10;;;;;;;11.60;7.40;;;10.00;99.90;;;;;;4203176;28;20213;-76
2022/09/25 04:30:13;;;;;;;10.07;7.00;;;10.00;99.90;;;;;;4218053;28;20258;-76
2022/09/25 04:34:35;;;;;;;10.37;7.27;;;10.10;99.90;;;;;;4217050;28;20202;-76
2022/09/25 04:36:37;;;;;;;11.90;8.10;;;10.10;99.90;;;;;;4219999;28;20311;-76
2022/09/25 04:38:39;;;;;;;10.20;7.50;;;10.10;99.90;;;;;;4218223;28;20215;-76
2022/09/25 04:40:40;;;;;;;11.17;7.97;;;10.10;99.90;;;;;;4223063;28;20322;-76
2022/09/25 04:42:42;;;;;;;11.83;8.30;;;10.10;99.90;;;;;;4221794;28;20205;-76
2022/09/25 04:44:45;;;;;;;11.97;8.27;;;10.10;99.90;;;;;;4206572;28;20821;-76
2022/09/25 04:46:47;;;;;;;11.60;8.73;;;10.10;99.90;;;;;;4217560;28;20222;-76
2022/09/25 04:48:49;;;;;;;12.17;8.17;;;10.10;99.90;;;;;;4235000;28;20236;-75
2022/09/25 04:50:51;;;;;;;11.47;7.50;;;10.10;99.90;;;;;;4224405;28;20229;-77
2022/09/25 04:52:53;;;;;;;11.90;8.10;;;10.10;99.90;;;;;;4242598;28;20207;-74
2022/09/25 04:54:55;;;;;;;12.73;8.43;;;10.10;99.90;;;;;;4237070;28;20194;-76
2022/09/25 04:56:57;;;;;;;12.13;8.43;;;10.10;99.90;;;;;;4244198;28;20212;-75
2022/09/25 04:58:59;;;;;;;13.00;8.67;;;10.10;99.90;;;;;;4222080;28;20216;-76
2022/09/25 05:01:04;;;;;;;12.67;8.90;;;10.10;99.90;;;;;;4209232;28;20263;-76
2022/09/25 05:03:06;;;;;;;10.43;7.43;;;10.10;99.90;;;;;;4205947;28;20213;-76
2022/09/25 05:05:09;;;;;;;12.43;8.53;;;10.10;99.90;;;;;;4219895;28;20628;-76
2022/09/25 05:07:11;;;;;;;10.57;7.40;;;10.20;99.90;;;;;;4215168;28;20571;-76
2022/09/25 05:09:13;;;;;;;10.67;7.37;;;10.20;99.90;;;;;;4219369;28;20204;-76
2022/09/25 05:11:14;;;;;;;10.93;7.67;;;10.20;99.90;;;;;;4198930;28;20421;-75
2022/09/25 05:13:17;;;;;;;10.07;7.30;;;10.20;99.90;;;;;;4219659;28;20209;-76
2022/09/25 05:15:19;;;;;;;11.30;7.43;;;10.20;99.90;;;;;;4222130;28;20288;-76
2022/09/25 05:17:22;;;;;;;9.30;7.20;;;10.20;99.90;;;;;;4201067;28;20287;-76
2022/09/25 05:19:24;;;;;;;10.43;7.30;;;10.20;99.90;;;;;;4222497;28;20292;-76
2022/09/25 05:21:26;;;;;;;10.27;6.70;;;10.20;99.90;;;;;;4201593;28;20297;-75
2022/09/25 05:23:28;;;;;;;10.80;7.17;;;10.20;99.90;;;;;;4218546;28;20213;-76
2022/09/25 05:25:30;;;;;;;11.30;7.23;;;10.30;99.90;;;;;;4200759;28;20219;-76
2022/09/25 05:27:33;;;;;;;9.30;6.87;;;10.30;99.90;;;;;;4217334;28;20227;-76
2022/09/25 05:29:35;;;;;;;9.93;6.77;;;10.30;99.90;;;;;;4199423;28;20686;-76
2022/09/25 05:31:37;;;;;;;9.00;6.40;;;10.30;99.90;;;;;;4212169;28;20752;-76
2022/09/25 05:33:40;;;;;;;8.90;6.77;;;10.30;99.90;;;;;;4200918;28;20201;-75
2022/09/25 05:35:42;;;;;;;11.93;7.90;;;10.30;99.90;;;;;;4215905;28;20198;-76
2022/09/25 05:37:43;;;;;;;9.57;7.03;;;10.40;99.90;;;;;;4202485;28;20874;-75
2022/09/25 05:39:45;;;;;;;9.67;6.83;;;10.30;99.90;;;;;;4200276;28;20205;-75
2022/09/25 05:41:47;;;;;;;10.60;7.33;;;10.40;99.90;;;;;;4217728;28;20210;-76
2022/09/25 05:43:49;;;;;;;10.57;7.67;;;10.40;99.90;;;;;;4221630;28;20204;-76
2022/09/25 05:45:54;;;;;;;10.13;7.00;;;10.40;99.90;;;;;;4217516;28;20202;-76
2022/09/25 05:48:03;;;;;;;11.33;8.07;;;10.50;99.90;;;;;;4221811;28;20210;-75
2022/09/25 05:50:09;;;;;;;11.30;7.50;;;10.40;99.90;;;;;;4211459;28;20313;-75
2022/09/25 05:52:11;;;;;;;12.00;8.13;;;10.50;99.90;;;;;;4213673;28;20228;-76
2022/09/25 05:54:13;;;;;;;14.00;8.97;;;10.50;99.90;;;;;;4199857;28;20297;-76
2022/09/25 05:56:16;;;;;;;11.00;8.20;;;10.50;99.90;;;;;;4196786;28;20229;-76
2022/09/25 05:58:18;;;;;;;11.30;7.83;;;10.40;99.90;;;;;;4199157;28;20324;-75
2022/09/25 06:00:20;;;;;;;11.13;7.67;;;10.50;99.90;;;;;;4200793;28;20210;-75
2022/09/25 06:02:22;;;;;;;12.07;6.97;;;10.50;99.90;;;;;;4218815;28;20279;-75
2022/09/25 06:04:24;;;;;;;10.10;7.47;;;10.50;99.90;;;;;;4216557;28;20217;-76
2022/09/25 06:06:27;;;;;;;8.73;6.70;;;10.50;99.90;;;;;;4201522;28;20325;-76
2022/09/25 06:08:30;;;;;;;10.77;7.50;;;10.60;99.90;;;;;;4217566;28;20579;-76
2022/09/25 06:10:32;;;;;;;10.43;7.40;;;10.60;99.90;;;;;;4217351;28;20259;-76
2022/09/25 06:12:34;;;;;;;10.90;7.27;;;10.60;99.90;;;;;;4219755;28;20202;-76
2022/09/25 06:14:36;;;;;;;10.43;7.30;;;10.60;99.90;;;;;;4211664;28;20233;-76
2022/09/25 06:16:37;;;;;;;9.10;6.80;;;10.70;99.90;;;;;;4216412;28;20793;-75
2022/09/25 06:18:39;;;;;;;11.53;7.43;;;10.70;99.90;;;;;;4219425;28;20301;-76
2022/09/25 06:20:41;;;;;;;10.67;7.40;;;10.70;99.90;;;;;;4217861;28;20203;-76
2022/09/25 06:22:44;;;;;;;9.77;7.40;;;10.70;99.90;;;;;;4218898;28;20216;-76
2022/09/25 06:24:47;;;;;;;12.57;8.27;;;10.80;99.90;;;;;;4220460;28;20302;-77
2022/09/25 06:26:49;;;;;;;11.57;8.00;;;10.80;99.90;;;;;;4221408;28;20312;-75
2022/09/25 06:28:51;;;;;;;9.43;7.30;;;10.80;99.90;;;;;;4216951;28;20233;-75
2022/09/25 06:30:53;;;;;;;10.57;8.03;;;10.90;99.90;;;;;;4202224;28;20859;-76
2022/09/25 06:32:57;;;;;;;11.10;7.53;;;10.90;99.90;;;;;;4201694;28;20696;-76
2022/09/25 06:34:58;;;;;;;12.20;8.47;;;11.00;99.90;;;;;;4204975;28;20299;-76
2022/09/25 06:37:00;;;;;;;12.83;9.63;;;11.00;99.90;;;;;;4200088;28;20262;-76
2022/09/25 06:39:04;;;;;;;13.23;9.27;;;11.00;99.90;;;;;;4198147;28;20285;-76
2022/09/25 06:41:06;;;;;;;11.50;8.73;;;11.00;99.90;;;;;;4216830;28;20290;-76
2022/09/25 06:43:11;;;;;;;12.10;9.00;;;11.00;99.90;;;;;;4198236;28;20217;-76
2022/09/25 06:45:13;;;;;;;12.50;9.13;;;11.00;99.90;;;;;;4198678;28;20704;-76
2022/09/25 06:47:15;;;;;;;14.57;9.90;;;11.10;99.90;;;;;;4217771;28;20627;-76
2022/09/25 06:49:16;;;;;;;13.23;9.80;;;11.10;99.90;;;;;;4220320;28;20215;-76
2022/09/25 06:51:18;;;;;;;14.60;10.53;;;11.10;99.90;;;;;;4223922;28;20721;-76
2022/09/25 06:53:21;;;;;;;12.87;9.60;;;11.10;99.90;;;;;;4218617;28;20622;-76
2022/09/25 06:55:24;;;;;;;14.47;9.50;;;11.20;99.90;;;;;;4209095;28;20243;-76
2022/09/25 06:57:26;;;;;;;13.83;9.33;;;11.20;99.90;;;;;;4210957;28;21034;-76
2022/09/25 06:59:28;;;;;;;12.20;8.60;;;11.20;99.90;;;;;;4218898;28;20232;-76
2022/09/25 07:01:30;;;;;;;14.37;9.70;;;11.20;99.90;;;;;;4217789;28;20241;-75
2022/09/25 07:03:47;;;;;;;11.53;8.60;;;11.20;99.90;;;;;;4218502;28;20206;-75
2022/09/25 07:05:49;;;;;;;12.53;8.90;;;11.30;99.90;;;;;;4218553;28;20570;-76
2022/09/25 07:07:51;;;;;;;13.50;8.83;;;11.30;99.90;;;;;;4219690;28;20243;-76
2022/09/25 07:09:52;;;;;;;12.20;8.57;;;11.30;99.90;;;;;;4216275;28;20241;-76
2022/09/25 07:11:56;;;;;;;11.33;8.37;;;11.30;99.90;;;;;;4215091;28;20205;-76
2022/09/25 07:13:58;;;;;;;13.27;9.37;;;11.40;99.90;;;;;;4197605;28;20302;-76
2022/09/25 07:16:01;;;;;;;12.30;9.07;;;11.40;99.90;;;;;;4221277;28;20222;-76
2022/09/25 07:18:04;;;;;;;12.57;9.03;;;11.40;99.90;;;;;;4216947;28;20217;-76
2022/09/25 07:20:07;;;;;;;15.30;10.77;;;11.40;99.90;;;;;;4197838;28;20215;-77
2022/09/25 07:22:10;;;;;;;13.43;9.80;;;11.50;99.90;;;;;;4202712;28;20705;-76
2022/09/25 07:24:12;;;;;;;15.07;10.13;;;11.50;99.90;;;;;;4218163;28;20250;-76
2022/09/25 07:26:15;;;;;;;13.57;9.93;;;11.50;99.90;;;;;;4221087;28;20976;-76
2022/09/25 07:28:18;;;;;;;15.80;11.50;;;11.60;99.90;;;;;;4221484;28;20206;-76
2022/09/25 07:30:20;;;;;;;14.83;10.50;;;11.60;99.90;;;;;;4225534;28;20205;-76
2022/09/25 07:32:22;;;;;;;12.87;9.47;;;11.70;99.90;;;;;;4227932;28;20209;-77
2022/09/25 07:34:24;;;;;;;12.20;9.20;;;11.70;99.90;;;;;;4214358;28;20696;-75
2022/09/25 07:36:26;;;;;;;15.87;10.57;;;11.70;99.90;;;;;;4220135;28;20224;-75
2022/09/25 07:38:28;;;;;;;15.13;10.13;;;11.80;99.90;;;;;;4199268;28;20225;-74
2022/09/25 07:40:32;;;;;;;13.27;9.73;;;11.80;99.90;;;;;;4201115;28;20769;-76
2022/09/25 07:42:34;;;;;;;16.00;11.03;;;11.80;99.90;;;;;;4218568;28;20214;-75
2022/09/25 07:44:38;;;;;;;18.60;12.13;;;11.80;99.90;;;;;;4221815;28;20208;-75
2022/09/25 07:46:43;;;;;;;14.60;10.90;;;11.90;99.90;;;;;;4224417;28;20295;-75
2022/09/25 07:48:47;;;;;;;15.07;10.13;;;11.90;99.90;;;;;;4219679;28;20204;-75
2022/09/25 07:50:49;;;;;;;14.93;10.50;;;12.00;99.90;;;;;;4224428;28;20251;-75
2022/09/25 07:52:52;;;;;;;14.37;10.50;;;12.00;99.90;;;;;;4216845;28;21155;-75
2022/09/25 07:54:54;;;;;;;17.03;11.10;;;12.00;99.90;;;;;;4207594;28;20677;-75
2022/09/25 07:56:57;;;;;;;14.20;10.57;;;12.10;99.90;;;;;;4223147;28;20314;-77
2022/09/25 07:58:59;;;;;;;15.70;11.00;;;12.20;99.90;;;;;;4221704;28;20207;-77
2022/09/25 08:01:04;;;;;;;14.93;10.20;;;12.20;99.90;;;;;;4202021;28;20209;-78
2022/09/25 08:03:10;;;;;;;13.93;10.77;;;12.30;99.90;;;;;;4221349;28;20204;-78
2022/09/25 08:05:11;;;;;;;14.83;10.57;;;12.30;99.90;;;;;;4201965;28;20214;-77
2022/09/25 08:07:13;;;;;;;14.70;10.30;;;12.40;99.90;;;;;;4222711;28;20331;-75
2022/09/25 08:09:15;;;;;;;16.07;11.10;;;12.40;99.90;;;;;;4215080;28;20212;-75
2022/09/25 08:11:17;;;;;;;17.27;11.83;;;12.50;99.90;;;;;;4221041;28;20227;-76
2022/09/25 08:13:20;;;;;;;15.40;11.40;;;12.50;99.90;;;;;;4202345;28;20267;-76
2022/09/25 08:15:22;;;;;;;15.70;11.50;;;12.60;99.90;;;;;;4205662;28;20681;-76
2022/09/25 08:17:30;;;;;;;14.13;10.87;;;12.70;99.90;;;;;;4219147;28;20216;-76
2022/09/25 08:19:32;;;;;;;15.17;10.90;;;12.70;99.90;;;;;;4223830;28;20204;-76
2022/09/25 08:21:35;;;;;;;15.97;11.23;;;12.70;99.90;;;;;;4220542;28;20612;-75
2022/09/25 08:23:37;;;;;;;17.23;12.17;;;12.80;99.90;;;;;;4221394;28;20222;-76
2022/09/25 08:25:38;;;;;;;18.33;12.40;;;12.90;99.90;;;;;;4202023;28;20229;-76
2022/09/25 08:27:42;;;;;;;18.57;12.63;;;12.90;99.90;;;;;;4202245;28;20590;-76
2022/09/25 08:29:43;;;;;;;21.67;13.10;;;13.00;99.90;;;;;;4218027;28;20231;-76
2022/09/25 08:31:46;;;;;;;19.00;13.10;;;13.00;99.90;;;;;;4199852;28;20229;-76
2022/09/25 08:33:50;;;;;;;18.73;12.23;;;13.10;99.90;;;;;;4221875;28;20288;-76
2022/09/25 08:35:56;;;;;;;17.37;11.83;;;13.20;99.90;;;;;;4219316;28;20204;-76
2022/09/25 08:37:58;;;;;;;18.23;12.60;;;13.30;99.90;;;;;;4215845;28;20223;-76
2022/09/25 08:39:59;;;;;;;18.13;11.73;;;13.40;99.90;;;;;;4212934;28;20243;-76
2022/09/25 08:42:02;;;;;;;16.07;11.43;;;13.40;99.90;;;;;;4201626;28;20680;-76
2022/09/25 08:44:09;;;;;;;19.13;12.80;;;13.50;99.90;;;;;;4218858;28;20201;-76
2022/09/25 08:49:01;;;;;;;17.10;10.70;;;13.60;99.90;;;;;;4220457;28;20247;-75
2022/09/25 08:51:05;;;;;;;15.83;10.60;;;13.70;99.90;;;;;;4203676;28;20221;-76
2022/09/25 08:53:14;;;;;;;15.27;10.63;;;13.80;99.90;;;;;;4220597;28;20209;-76
2022/09/25 08:55:23;;;;;;;17.07;12.03;;;13.90;99.90;;;;;;4215835;28;20205;-76
2022/09/25 08:57:30;;;;;;;15.87;11.13;;;14.00;99.90;;;;;;4219037;28;20227;-75
2022/09/25 08:59:37;;;;;;;17.40;11.37;;;14.10;99.90;;;;;;4202785;28;20241;-76
2022/09/25 09:01:44;;;;;;;17.53;11.30;;;14.10;99.90;;;;;;4223479;28;20580;-76
2022/09/25 09:03:52;;;;;;;14.53;10.10;;;14.30;99.90;;;;;;4212662;28;20213;-77
2022/09/25 09:05:59;;;;;;;16.30;11.17;;;14.30;99.90;;;;;;4221448;28;20610;-75
2022/09/25 09:08:05;;;;;;;16.63;11.40;;;14.40;99.90;;;;;;4218496;28;20706;-76
2022/09/25 09:10:16;;;;;;;15.87;10.57;;;14.50;99.90;;;;;;4216488;28;20198;-76
2022/09/25 09:12:22;;;;;;;14.87;10.10;;;14.50;99.90;;;;;;4223791;28;20649;-76
2022/09/25 09:14:29;;;;;;;17.40;10.33;;;14.60;99.90;;;;;;4210619;28;20823;-75
2022/09/25 09:16:37;;;;;;;13.53;9.90;;;14.70;99.90;;;;;;4193806;28;20283;-75
2022/09/25 09:18:40;;;;;;;13.40;9.50;;;14.80;99.90;;;;;;4209910;28;20664;-75
2022/09/25 09:20:48;;;;;;;14.53;9.87;;;14.90;99.90;;;;;;4217615;28;20300;-75
2022/09/25 09:22:52;;;;;;;13.30;8.77;;;15.00;99.90;;;;;;4199634;28;20254;-76
2022/09/25 09:25:08;;;;;;;14.50;9.13;;;15.20;99.90;;;;;;4203866;28;20249;-76
2022/09/25 09:27:22;;;;;;;13.40;9.33;;;15.30;99.90;;;;;;4201048;28;20765;-76
2022/09/25 09:29:35;;;;;;;13.03;8.80;;;15.40;99.90;;;;;;4221321;28;20295;-77
2022/09/25 09:31:48;;;;;;;13.60;9.10;;;15.50;99.90;;;;;;4219747;28;20327;-76
2022/09/25 09:34:00;;;;;;;12.37;8.60;;;15.60;99.90;;;;;;4217452;28;20208;-77
2022/09/25 09:36:09;;;;;;;13.30;9.33;;;15.70;99.90;;;;;;4227857;28;20232;-79
2022/09/25 09:38:21;;;;;;;14.30;9.10;;;15.80;99.90;;;;;;4226287;28;20231;-79
2022/09/25 09:40:45;;;;;;;12.90;8.50;;;15.90;99.90;;;;;;4210764;28;20201;-79
2022/09/25 09:42:56;;;;;;;14.07;8.80;;;16.00;99.90;;;;;;4230223;28;20212;-79
2022/09/25 09:45:10;;;;;;;14.00;9.47;;;16.10;99.90;;;;;;4211362;28;20205;-79
2022/09/25 09:47:28;;;;;;;13.40;9.57;;;16.10;99.90;;;;;;4219520;28;20327;-80
2022/09/25 09:49:37;;;;;;;12.80;9.07;;;16.20;99.90;;;;;;4211370;28;20236;-78
2022/09/25 09:51:45;;;;;;;12.73;9.07;;;16.30;99.90;;;;;;4206711;28;20296;-78
2022/09/25 09:53:51;;;;;;;12.37;8.67;;;16.30;99.90;;;;;;4225002;28;20822;-78
2022/09/25 09:55:59;;;;;;;10.20;7.77;;;16.40;99.90;;;;;;4224240;28;20205;-77
2022/09/25 09:58:07;;;;;;;12.17;8.27;;;16.50;99.90;;;;;;4202279;28;20296;-77
2022/09/25 10:00:15;;;;;;;10.83;8.20;;;16.60;99.90;;;;;;4224432;28;20723;-78
2022/09/25 10:02:29;;;;;;;12.37;8.17;;;16.60;99.90;;;;;;4223312;28;20223;-77
2022/09/25 10:04:36;;;;;;;11.90;8.13;;;16.70;99.90;;;;;;4224645;28;20298;-78
2022/09/25 10:06:42;;;;;;;12.70;8.93;;;16.80;99.90;;;;;;4208256;28;20731;-77
2022/09/25 10:08:44;;;;;;;13.07;7.93;;;16.90;99.90;;;;;;4226117;28;20262;-77
2022/09/25 10:10:52;;;;;;;13.80;9.10;;;16.90;99.90;;;;;;4235661;28;20599;-77
2022/09/25 10:12:58;;;;;;;12.80;8.20;;;17.00;99.90;;;;;;4220004;28;20241;-76
2022/09/25 10:15:04;;;;;;;12.47;8.87;;;17.10;99.90;;;;;;4241837;28;20184;-76
2022/09/25 10:17:10;;;;;;;12.20;8.53;;;17.20;99.90;;;;;;4238026;28;20286;-76
2022/09/25 10:19:18;;;;;;;12.27;8.30;;;17.30;99.90;;;;;;4240758;28;20186;-76
2022/09/25 10:21:23;;;;;;;14.13;8.70;;;17.30;99.90;;;;;;4240596;28;20212;-78
2022/09/25 10:23:35;;;;;;;14.00;9.70;;;17.30;99.90;;;;;;4245669;28;20238;-78
2022/09/25 10:25:38;;;;;;;15.40;10.43;;;17.40;99.90;;;;;;4246798;28;20220;-78
2022/09/25 10:27:44;;;;;;;16.07;10.70;;;17.40;99.90;;;;;;4243814;28;20216;-77
2022/09/25 10:30:17;;;;;;;13.60;9.57;;;17.50;99.90;;;;;;4218146;28;20217;-78
2022/09/25 10:32:19;;;;;;;14.07;9.63;;;17.50;99.90;;;;;;4236902;28;20223;-79
2022/09/25 10:34:23;;;;;;;13.63;9.20;;;17.50;99.90;;;;;;4235159;28;20566;-79
2022/09/25 10:36:31;;;;;;;11.60;8.53;;;17.50;99.90;;;;;;4217899;28;20276;-79
2022/09/25 10:38:47;;;;;;;11.23;8.40;;;17.50;99.90;;;;;;4225330;28;20252;-79
2022/09/25 10:40:59;;;;;;;13.27;9.00;;;17.60;99.90;;;;;;4227277;28;20237;-78
2022/09/25 10:43:16;;;;;;;13.80;9.70;;;17.60;99.90;;;;;;4211290;28;20282;-77
2022/09/25 10:45:31;;;;;;;12.40;9.10;;;17.50;99.90;;;;;;4205681;28;20206;-78
2022/09/25 10:50:10;;;;;;;14.50;10.07;;;17.60;99.90;;;;;;4204371;28;20201;-78
2022/09/25 10:52:13;;;;;;;13.63;9.80;;;17.60;99.90;;;;;;4219761;28;20258;-77
2022/09/25 10:54:16;;;;;;;16.20;10.33;;;17.60;99.90;;;;;;4221773;28;20201;-77
2022/09/25 10:56:26;;;;;;;16.47;10.83;;;17.60;99.90;;;;;;4219241;28;20213;-77